createdAt,value
2023-03-23T00:00:32.562Z,46.58
2023-03-23T00:03:03.093Z,46.39
2023-03-23T00:05:34.230Z,46.25
2023-03-23T00:08:04.787Z,46.09
2023-03-23T00:10:35.385Z,45.59
2023-03-23T00:13:06.153Z,45.44
2023-03-23T00:15:42.738Z,45.00
2023-03-23T00:18:23.174Z,44.76
2023-03-23T00:20:55.417Z,44.53
2023-03-23T00:23:29.431Z,44.31
2023-03-23T00:26:00.937Z,44.46
2023-03-23T00:28:31.434Z,44.52
2023-03-23T00:31:07.238Z,44.32
2023-03-23T00:33:41.976Z,44.67
2023-03-23T00:36:15.126Z,44.69
2023-03-23T00:38:48.255Z,44.50
2023-03-23T00:41:18.972Z,44.83
2023-03-23T00:43:49.788Z,44.79
2023-03-23T00:46:23.793Z,44.70
2023-03-23T00:48:54.682Z,44.94
2023-03-23T00:51:25.410Z,44.96
2023-03-23T00:53:56.561Z,44.83
2023-03-23T00:56:27.722Z,44.61
2023-03-23T00:58:58.798Z,44.51
2023-03-23T01:01:34.136Z,44.52
2023-03-23T01:04:06.400Z,44.40
2023-03-23T01:06:40.102Z,44.05
2023-03-23T01:09:12.694Z,43.89
2023-03-23T01:11:43.314Z,43.48
2023-03-23T01:14:15.910Z,43.65
2023-03-23T01:16:49.656Z,43.61
2023-03-23T01:19:20.736Z,43.85
2023-03-23T01:21:51.357Z,43.87
2023-03-23T01:24:21.935Z,43.68
2023-03-23T01:26:52.943Z,43.70
2023-03-23T01:29:23.878Z,43.77
2023-03-23T01:31:57.018Z,43.89
2023-03-23T01:34:27.505Z,43.78
2023-03-23T01:36:58.065Z,43.77
2023-03-23T01:39:28.762Z,43.73
2023-03-23T01:41:59.717Z,43.92
2023-03-23T01:45:21.529Z,43.74
2023-03-23T01:48:01.818Z,43.93
2023-03-23T01:50:40.270Z,43.50
2023-03-23T01:53:14.545Z,43.51
2023-03-23T01:55:49.692Z,43.49
2023-03-23T01:58:26.772Z,43.75
2023-03-23T02:01:00.289Z,43.86
2023-03-23T02:03:35.780Z,43.78
2023-03-23T02:06:07.136Z,43.70
2023-03-23T02:08:45.303Z,43.61
2023-03-23T02:11:22.118Z,43.91
2023-03-23T02:13:54.255Z,43.66
2023-03-23T02:16:37.510Z,43.79
2023-03-23T02:19:44.800Z,44.01
2023-03-23T02:22:44.647Z,44.16
2023-03-23T02:25:39.096Z,44.11
2023-03-23T02:28:39.294Z,44.19
2023-03-23T02:31:32.248Z,44.25
2023-03-23T02:34:12.038Z,44.64
2023-03-23T02:36:48.669Z,44.96
2023-03-23T02:39:25.867Z,44.60
2023-03-23T02:42:01.732Z,45.16
2023-03-23T02:44:48.338Z,45.82
2023-03-23T02:47:26.034Z,46.09
2023-03-23T02:50:02.660Z,46.60
2023-03-23T02:52:37.035Z,46.93
2023-03-23T02:55:09.100Z,47.06
2023-03-23T02:57:41.470Z,47.33
2023-03-23T03:00:20.247Z,47.81
2023-03-23T03:02:55.243Z,48.07
2023-03-23T03:05:41.843Z,48.39
2023-03-23T03:08:24.475Z,48.36
2023-03-23T03:11:02.734Z,48.78
2023-03-23T03:13:48.859Z,48.86
2023-03-23T03:16:31.297Z,49.00
2023-03-23T03:19:08.251Z,48.77
2023-03-23T03:21:47.596Z,48.93
2023-03-23T03:24:24.699Z,48.81
2023-03-23T03:26:59.627Z,48.84
2023-03-23T03:29:51.836Z,48.83
2023-03-23T03:32:29.069Z,48.63
2023-03-23T03:35:00.260Z,48.73
2023-03-23T03:37:39.499Z,49.04
2023-03-23T03:40:14.085Z,48.66
2023-03-23T03:42:47.789Z,48.96
2023-03-23T03:45:22.683Z,48.88
2023-03-23T03:47:54.046Z,49.29
2023-03-23T03:50:26.329Z,49.31
2023-03-23T03:53:00.373Z,49.35
2023-03-23T03:55:36.422Z,49.48
2023-03-23T03:58:10.432Z,49.53
2023-03-23T04:01:11.386Z,49.53
2023-03-23T04:03:43.365Z,49.61
2023-03-23T04:06:22.682Z,49.70
2023-03-23T04:09:07.791Z,49.53
2023-03-23T04:11:40.715Z,49.42
2023-03-23T04:14:31.325Z,49.63
2023-03-23T04:17:01.784Z,49.50
2023-03-23T04:19:34.032Z,49.20
2023-03-23T04:22:06.384Z,49.45
2023-03-23T04:24:56.282Z,49.67
2023-03-23T04:27:29.205Z,49.68
2023-03-23T04:30:04.048Z,49.47
2023-03-23T04:32:41.855Z,49.54
2023-03-23T04:35:16.256Z,50.02
2023-03-23T04:37:52.090Z,50.22
2023-03-23T04:40:29.415Z,50.26
2023-03-23T04:43:14.019Z,50.10
2023-03-23T04:46:00.008Z,50.14
2023-03-23T04:48:34.624Z,50.10
2023-03-23T04:51:13.347Z,49.82
2023-03-23T04:53:46.085Z,49.92
2023-03-23T04:56:19.570Z,49.75
2023-03-23T04:58:50.827Z,49.41
2023-03-23T05:01:39.486Z,49.37
2023-03-23T05:04:23.747Z,49.38
2023-03-23T05:07:06.148Z,48.95
2023-03-23T05:09:40.226Z,49.12
2023-03-23T05:12:14.479Z,49.18
2023-03-23T05:14:53.504Z,48.80
2023-03-23T05:17:26.917Z,48.71
2023-03-23T05:20:01.059Z,48.92
2023-03-23T05:22:39.493Z,48.66
2023-03-23T05:25:12.981Z,48.83
2023-03-23T05:27:53.968Z,48.95
2023-03-23T05:30:40.156Z,48.94
2023-03-23T05:33:11.207Z,48.99
2023-03-23T05:35:52.986Z,49.20
2023-03-23T05:38:30.468Z,49.05
2023-03-23T05:41:03.987Z,49.24
2023-03-23T05:43:44.135Z,49.06
2023-03-23T05:46:26.030Z,48.98
2023-03-23T05:49:01.125Z,49.39
2023-03-23T05:51:41.014Z,49.14
2023-03-23T05:54:18.668Z,48.59
2023-03-23T05:56:54.847Z,48.87
2023-03-23T05:59:46.390Z,48.67
2023-03-23T06:02:24.470Z,48.42
2023-03-23T06:04:58.616Z,48.28
2023-03-23T06:07:34.987Z,48.21
2023-03-23T06:10:10.844Z,47.88
2023-03-23T06:12:44.056Z,48.11
2023-03-23T06:15:33.735Z,47.99
2023-03-23T06:18:05.024Z,48.24
2023-03-23T06:20:46.388Z,48.28
2023-03-23T06:23:28.444Z,48.77
2023-03-23T06:26:04.669Z,48.70
2023-03-23T06:28:35.920Z,48.58
2023-03-23T06:31:10.819Z,48.65
2023-03-23T06:33:42.520Z,48.66
2023-03-23T06:36:33.120Z,48.41
2023-03-23T06:39:11.174Z,48.37
2023-03-23T06:42:13.240Z,48.46
2023-03-23T06:44:49.728Z,48.90
2023-03-23T06:47:24.522Z,48.42
2023-03-23T06:49:55.089Z,48.37
2023-03-23T06:52:30.120Z,48.52
2023-03-23T06:55:00.725Z,48.32
2023-03-23T06:57:31.318Z,48.08
2023-03-23T07:00:01.864Z,47.78
2023-03-23T07:02:35.559Z,47.54
2023-03-23T07:05:07.218Z,47.28
2023-03-23T07:07:37.939Z,47.58
2023-03-23T07:10:20.535Z,47.88
2023-03-23T07:12:51.124Z,48.44
2023-03-23T07:15:21.998Z,48.49
2023-03-23T07:17:58.783Z,48.59
2023-03-23T07:20:52.552Z,48.81
2023-03-23T07:23:25.504Z,48.50
2023-03-23T07:26:02.530Z,48.56
2023-03-23T07:28:41.248Z,48.43
2023-03-23T07:31:49.909Z,49.16
2023-03-23T07:34:23.922Z,49.08
2023-03-23T07:37:14.646Z,49.44
2023-03-23T07:39:50.795Z,50.21
2023-03-23T07:42:21.295Z,50.08
2023-03-23T07:44:58.374Z,50.39
2023-03-23T07:47:34.252Z,49.90
2023-03-23T07:50:09.832Z,49.94
2023-03-23T07:52:45.130Z,51.16
2023-03-23T07:55:19.092Z,51.56
2023-03-23T07:58:21.599Z,51.52
2023-03-23T08:00:58.818Z,51.70
2023-03-23T08:03:33.313Z,51.99
2023-03-23T08:06:40.867Z,51.16
2023-03-23T08:09:24.249Z,52.05
2023-03-23T08:12:15.261Z,52.82
2023-03-23T08:15:04.107Z,53.69
2023-03-23T08:17:54.164Z,55.13
2023-03-23T08:20:43.743Z,55.95
2023-03-23T08:23:26.647Z,56.47
2023-03-23T08:26:20.925Z,56.86
2023-03-23T08:29:12.234Z,57.71
2023-03-23T08:31:58.491Z,59.66
2023-03-23T08:34:47.221Z,59.23
2023-03-23T08:37:54.209Z,61.03
2023-03-23T08:40:51.389Z,60.80
2023-03-23T08:43:54.413Z,62.46
2023-03-23T08:46:40.373Z,61.97
2023-03-23T08:49:21.917Z,62.17
2023-03-23T08:52:06.952Z,63.08
2023-03-23T08:54:59.876Z,62.70
2023-03-23T08:57:57.634Z,62.00
2023-03-23T09:00:49.260Z,61.42
2023-03-23T09:03:31.204Z,61.83
2023-03-23T09:06:23.475Z,61.14
2023-03-23T09:08:53.984Z,61.55
2023-03-23T09:11:24.465Z,61.34
2023-03-23T09:13:57.798Z,61.54
2023-03-23T09:16:28.271Z,61.37
2023-03-23T09:18:59.484Z,61.03
2023-03-23T09:21:31.008Z,61.02
2023-03-23T09:24:02.924Z,60.27
2023-03-23T09:26:34.125Z,60.94
2023-03-23T09:29:07.231Z,60.48
2023-03-23T09:31:38.004Z,59.40
2023-03-23T09:34:10.859Z,59.51
2023-03-23T09:36:41.596Z,58.85
2023-03-23T09:39:12.695Z,58.19
2023-03-23T09:42:08.807Z,58.65
2023-03-23T09:44:59.724Z,58.62
2023-03-23T09:47:41.372Z,58.12
2023-03-23T09:50:19.527Z,58.07
2023-03-23T09:52:57.090Z,58.45
2023-03-23T09:55:29.754Z,58.33
2023-03-23T09:58:11.569Z,58.10
2023-03-23T10:01:00.287Z,58.85
2023-03-23T10:03:41.057Z,58.92
2023-03-23T10:06:16.505Z,58.19
2023-03-23T10:08:57.441Z,58.27
2023-03-23T10:11:41.984Z,58.77
2023-03-23T10:14:38.778Z,58.86
2023-03-23T10:17:18.471Z,59.23
2023-03-23T10:19:56.945Z,59.62
2023-03-23T10:22:35.873Z,59.94
2023-03-23T10:25:20.131Z,60.04
2023-03-23T10:27:59.061Z,59.81
2023-03-23T10:30:34.800Z,60.19
2023-03-23T10:33:18.383Z,59.92
2023-03-23T10:35:56.525Z,59.50
2023-03-23T10:38:31.363Z,59.16
2023-03-23T10:41:07.755Z,58.15
2023-03-23T10:43:38.372Z,57.98
2023-03-23T10:46:31.957Z,58.39
2023-03-23T10:49:12.994Z,59.14
2023-03-23T10:51:47.694Z,59.81
2023-03-23T10:54:31.587Z,60.39
2023-03-23T10:57:04.009Z,61.55
2023-03-23T10:59:36.378Z,61.70
2023-03-23T11:02:29.340Z,61.48
2023-03-23T11:05:09.587Z,62.24
2023-03-23T11:07:42.410Z,61.80
2023-03-23T11:10:26.913Z,61.98
2023-03-23T11:13:01.858Z,62.39
2023-03-23T11:15:35.752Z,62.66
2023-03-23T11:18:11.355Z,63.72
2023-03-23T11:20:49.556Z,64.27
2023-03-23T11:23:25.983Z,64.67
2023-03-23T11:26:01.434Z,64.97
2023-03-23T11:28:36.709Z,65.23
2023-03-23T11:31:10.034Z,65.15
2023-03-23T11:34:05.874Z,65.03
2023-03-23T11:36:42.781Z,65.19
2023-03-23T11:39:30.885Z,65.58
2023-03-23T11:42:09.302Z,66.94
2023-03-23T11:44:47.331Z,66.80
2023-03-23T11:47:28.586Z,66.52
2023-03-23T11:50:07.155Z,66.25
2023-03-23T11:52:47.035Z,65.16
2023-03-23T11:55:22.683Z,64.00
2023-03-23T11:57:53.615Z,63.50
2023-03-23T12:00:26.536Z,62.21
2023-03-23T12:03:16.563Z,60.84
2023-03-23T12:06:07.518Z,60.47
2023-03-23T12:08:53.228Z,60.05
2023-03-23T12:11:32.056Z,60.62
2023-03-23T12:14:36.564Z,59.87
2023-03-23T12:17:23.105Z,59.61
2023-03-23T12:20:11.688Z,59.61
2023-03-23T12:22:56.317Z,58.15
2023-03-23T12:26:04.617Z,58.64
2023-03-23T12:28:54.681Z,58.83
2023-03-23T12:31:32.069Z,59.03
2023-03-23T12:34:13.439Z,58.89
2023-03-23T12:37:00.115Z,58.85
2023-03-23T12:40:14.358Z,58.66
2023-03-23T12:42:59.921Z,58.05
2023-03-23T12:46:02.696Z,58.45
2023-03-23T12:48:37.976Z,59.73
2023-03-23T12:51:17.512Z,59.83
2023-03-23T12:53:57.637Z,60.18
2023-03-23T12:56:34.718Z,60.88
2023-03-23T12:59:17.009Z,60.51
2023-03-23T13:01:51.050Z,61.11
2023-03-23T13:04:26.301Z,61.63
2023-03-23T13:06:57.078Z,61.05
2023-03-23T13:09:49.088Z,61.28
2023-03-23T13:12:21.940Z,61.42
2023-03-23T13:15:06.443Z,61.68
2023-03-23T13:17:48.886Z,62.25
2023-03-23T13:20:42.112Z,62.39
2023-03-23T13:23:18.757Z,61.45
2023-03-23T13:25:57.730Z,62.06
2023-03-23T13:28:31.244Z,61.55
2023-03-23T13:31:18.187Z,61.08
2023-03-23T13:33:54.225Z,61.24
2023-03-23T13:36:34.227Z,61.12
2023-03-23T13:39:08.811Z,60.96
2023-03-23T13:41:51.182Z,61.85
2023-03-23T13:44:29.987Z,61.72
2023-03-23T13:47:41.974Z,61.33
2023-03-23T13:50:30.914Z,57.03
2023-03-23T13:53:06.270Z,50.10
2023-03-23T13:55:51.544Z,46.50
2023-03-23T13:58:30.210Z,45.54
2023-03-23T14:01:19.098Z,46.67
2023-03-23T14:03:54.283Z,43.99
2023-03-23T14:06:27.607Z,42.11
2023-03-23T14:09:16.276Z,44.88
2023-03-23T14:11:54.802Z,46.77
2023-03-23T14:14:32.910Z,47.86
2023-03-23T14:17:13.027Z,49.99
2023-03-23T14:19:53.545Z,51.05
2023-03-23T14:22:30.950Z,52.96
2023-03-23T14:25:10.218Z,53.94
2023-03-23T14:27:42.871Z,53.79
2023-03-23T14:30:19.592Z,53.59
2023-03-23T14:32:52.624Z,54.54
2023-03-23T14:35:37.101Z,54.29
2023-03-23T14:38:08.916Z,54.14
2023-03-23T14:40:40.691Z,54.81
2023-03-23T14:43:15.989Z,55.27
2023-03-23T14:45:51.980Z,55.83
2023-03-23T14:48:25.698Z,55.96
2023-03-23T14:51:07.746Z,56.11
2023-03-23T14:53:43.514Z,56.45
2023-03-23T14:56:18.203Z,55.92
2023-03-23T14:58:50.005Z,56.48
2023-03-23T15:01:25.317Z,56.90
2023-03-23T15:04:01.084Z,56.59
2023-03-23T15:06:38.569Z,56.67
2023-03-23T15:09:14.226Z,56.80
2023-03-23T15:11:47.036Z,57.59
2023-03-23T15:14:24.125Z,57.54
2023-03-23T15:16:58.399Z,57.50
2023-03-23T15:19:36.408Z,57.70
2023-03-23T15:22:30.125Z,57.65
2023-03-23T15:25:14.360Z,58.19
2023-03-23T15:27:47.921Z,58.54
2023-03-23T15:30:39.009Z,58.79
2023-03-23T15:33:15.228Z,59.39
2023-03-23T15:35:53.813Z,59.41
2023-03-23T15:38:30.043Z,59.95
2023-03-23T15:41:08.215Z,60.42
2023-03-23T15:43:52.689Z,61.10
2023-03-23T15:46:28.017Z,62.24
2023-03-23T15:49:14.735Z,63.09
2023-03-23T15:51:45.289Z,64.46
2023-03-23T15:54:20.692Z,66.40
2023-03-23T15:56:51.119Z,66.88
2023-03-23T15:59:21.558Z,67.16
2023-03-23T16:01:52.464Z,67.72
2023-03-23T16:04:24.082Z,67.67
2023-03-23T16:06:59.332Z,67.65
2023-03-23T16:09:32.376Z,68.51
2023-03-23T16:12:02.792Z,68.14
2023-03-23T16:14:33.300Z,68.49
2023-03-23T16:17:04.063Z,69.59
2023-03-23T16:19:34.593Z,70.61
2023-03-23T16:22:04.976Z,70.77
2023-03-23T16:24:38.670Z,71.65
2023-03-23T16:27:09.116Z,72.55
2023-03-23T16:29:54.828Z,73.97
2023-03-23T16:32:30.317Z,73.83
2023-03-23T16:35:00.774Z,74.21
2023-03-23T16:37:33.517Z,74.20
2023-03-23T16:40:09.927Z,74.05
2023-03-23T16:42:40.468Z,73.66
2023-03-23T16:45:12.308Z,72.96
2023-03-23T16:47:43.579Z,72.19
2023-03-23T16:50:17.217Z,72.37
2023-03-23T16:52:50.584Z,72.63
2023-03-23T16:55:26.283Z,72.72
2023-03-23T16:58:09.364Z,73.06
2023-03-23T17:00:50.542Z,73.09
2023-03-23T17:03:22.330Z,72.74
2023-03-23T17:05:54.546Z,72.36
2023-03-23T17:08:25.442Z,72.05
2023-03-23T17:10:58.241Z,72.10
2023-03-23T17:13:28.654Z,72.54
2023-03-23T17:15:59.855Z,72.06
2023-03-23T17:18:30.313Z,71.96
2023-03-23T17:21:00.910Z,71.32
2023-03-23T17:23:31.694Z,72.08
2023-03-23T17:26:04.811Z,73.21
2023-03-23T17:28:35.335Z,73.49
2023-03-23T17:31:06.826Z,73.38
2023-03-23T17:33:37.364Z,73.14
2023-03-23T17:36:08.450Z,72.71
2023-03-23T17:38:38.930Z,73.18
2023-03-23T17:41:12.140Z,73.36
2023-03-23T17:43:43.063Z,73.49
2023-03-23T17:46:13.750Z,73.42
2023-03-23T17:48:44.432Z,73.18
2023-03-23T17:51:14.874Z,73.00
2023-03-23T17:53:45.452Z,72.73
2023-03-23T17:56:18.784Z,72.76
2023-03-23T17:58:49.285Z,72.76
2023-03-23T18:01:19.824Z,72.62
2023-03-23T18:03:50.297Z,72.76
2023-03-23T18:06:20.984Z,72.36
2023-03-23T18:08:51.609Z,72.15
2023-03-23T18:11:24.856Z,72.34
2023-03-23T18:13:55.512Z,72.17
2023-03-23T18:16:26.306Z,72.13
2023-03-23T18:18:56.787Z,72.22
2023-03-23T18:21:27.240Z,72.03
2023-03-23T18:23:59.567Z,72.07
2023-03-23T18:26:33.213Z,71.59
2023-03-23T18:29:03.861Z,71.66
2023-03-23T18:31:40.138Z,71.01
2023-03-23T18:34:11.147Z,70.70
2023-03-23T18:36:41.263Z,70.52
2023-03-23T18:39:13.508Z,70.05
2023-03-23T18:41:46.582Z,69.84
2023-03-23T18:44:16.977Z,69.87
2023-03-23T18:46:47.374Z,69.67
2023-03-23T18:49:17.772Z,69.56
2023-03-23T18:51:48.329Z,69.11
2023-03-23T18:54:18.766Z,69.53
2023-03-23T18:56:51.954Z,69.44
2023-03-23T18:59:24.202Z,69.37
2023-03-23T19:01:54.894Z,69.52
2023-03-23T19:04:25.694Z,69.49
2023-03-23T19:06:56.178Z,69.53
2023-03-23T19:09:27.569Z,70.15
2023-03-23T19:12:00.745Z,69.93
2023-03-23T19:14:31.311Z,70.37
2023-03-23T19:17:01.715Z,70.50
2023-03-23T19:22:03.462Z,70.51
2023-03-23T19:24:34.162Z,71.31
2023-03-23T19:27:08.227Z,71.22
2023-03-23T19:29:39.013Z,71.02
2023-03-23T19:32:09.620Z,70.72
2023-03-23T19:34:40.122Z,71.03
2023-03-23T19:37:11.308Z,70.91
2023-03-23T19:39:43.088Z,71.34
2023-03-23T19:42:18.616Z,70.53
2023-03-23T19:44:49.363Z,70.04
2023-03-23T19:47:20.063Z,69.63
2023-03-23T19:49:51.491Z,69.70
2023-03-23T19:52:21.748Z,69.38
2023-03-23T19:54:52.260Z,69.36
2023-03-23T19:57:25.524Z,69.28
2023-03-23T19:59:56.072Z,69.58
2023-03-23T20:02:26.776Z,69.30
2023-03-23T20:04:57.587Z,69.59
2023-03-23T20:07:28.027Z,69.47
2023-03-23T20:09:59.096Z,69.93
2023-03-23T20:12:32.225Z,69.75
2023-03-23T20:15:02.787Z,70.34
2023-03-23T20:17:33.356Z,70.08
2023-03-23T20:20:06.287Z,70.54
2023-03-23T20:22:37.063Z,70.28
2023-03-23T20:25:09.189Z,70.18
2023-03-23T20:27:43.808Z,69.54
2023-03-23T20:30:17.086Z,69.20
2023-03-23T20:32:49.240Z,69.22
2023-03-23T20:35:22.619Z,69.44
2023-03-23T20:37:53.887Z,70.00
2023-03-23T20:40:24.730Z,70.17
2023-03-23T20:42:58.000Z,70.33
2023-03-23T20:45:28.534Z,70.57
2023-03-23T20:48:02.319Z,70.45
2023-03-23T20:50:33.430Z,70.53
2023-03-23T20:53:04.816Z,70.51
2023-03-23T20:55:35.325Z,70.93
2023-03-23T20:58:08.378Z,71.04
2023-03-23T21:00:38.865Z,71.12
2023-03-23T21:03:09.632Z,70.53
2023-03-23T21:05:41.244Z,70.61
2023-03-23T21:08:12.187Z,70.80
2023-03-23T21:10:43.643Z,70.69
2023-03-23T21:13:18.608Z,71.11
2023-03-23T21:15:50.885Z,70.95
2023-03-23T21:18:23.727Z,70.92
2023-03-23T21:20:54.695Z,71.02
2023-03-23T21:23:26.900Z,70.94
2023-03-23T21:25:58.043Z,70.90
2023-03-23T21:28:31.793Z,71.17
2023-03-23T21:31:03.615Z,70.82
2023-03-23T21:33:34.729Z,70.90
2023-03-23T21:36:05.367Z,70.85
2023-03-23T21:38:36.006Z,70.89
2023-03-23T21:41:11.953Z,71.14
2023-03-23T21:43:46.076Z,71.38
2023-03-23T21:46:20.315Z,71.70
2023-03-23T21:48:53.187Z,71.77
2023-03-23T21:51:26.654Z,71.07
2023-03-23T21:53:58.351Z,70.76
2023-03-23T21:56:30.223Z,70.68
2023-03-23T21:59:04.974Z,70.69
2023-03-23T22:01:37.255Z,70.35
2023-03-23T22:04:09.550Z,70.20
2023-03-23T22:06:41.198Z,70.26
2023-03-23T22:09:12.704Z,70.58
2023-03-23T22:11:44.129Z,70.32
2023-03-23T22:14:17.679Z,70.22
2023-03-23T22:16:48.386Z,70.42
2023-03-23T22:19:19.164Z,70.51
2023-03-23T22:21:50.717Z,70.24
2023-03-23T22:24:22.149Z,70.06
2023-03-23T22:26:52.938Z,69.89
2023-03-23T22:29:29.785Z,69.84
2023-03-23T22:32:00.552Z,69.64
2023-03-23T22:34:32.774Z,69.54
2023-03-23T22:37:05.789Z,69.37
2023-03-23T22:39:37.130Z,68.84
2023-03-23T22:42:08.012Z,68.80
2023-03-23T22:44:41.043Z,68.84
2023-03-23T22:47:11.770Z,68.86
2023-03-23T22:49:42.589Z,68.59
2023-03-23T22:52:13.300Z,68.39
2023-03-23T22:54:44.188Z,68.09
2023-03-23T22:57:15.153Z,67.71
2023-03-23T22:59:51.270Z,68.05
2023-03-23T23:02:22.567Z,68.08
2023-03-23T23:04:53.356Z,67.96
2023-03-23T23:07:24.501Z,68.23
2023-03-23T23:09:55.357Z,68.09
2023-03-23T23:12:26.056Z,67.81
2023-03-23T23:14:59.430Z,67.41
2023-03-23T23:17:32.228Z,67.36
2023-03-23T23:20:05.882Z,67.00
2023-03-23T23:22:37.013Z,67.16
2023-03-23T23:25:09.412Z,67.71
2023-03-23T23:27:40.268Z,67.79
2023-03-23T23:30:15.876Z,67.97
2023-03-23T23:32:47.492Z,67.74
2023-03-23T23:35:18.307Z,67.88
2023-03-23T23:37:49.568Z,67.83
2023-03-23T23:40:21.412Z,67.87
2023-03-23T23:42:54.800Z,67.89
2023-03-23T23:45:28.289Z,67.68
2023-03-23T23:47:59.469Z,68.05
2023-03-23T23:50:30.544Z,67.84
2023-03-23T23:53:01.679Z,67.76
2023-03-23T23:55:32.566Z,67.62
2023-03-23T23:58:02.966Z,67.84
